• Join FlightAware (Why Join?)
  • Login
  • US Flag 
02:56PM EDT


 

Airport Tracker/Info


-or-


 

Live Flight TrackerFlight Track Log ✈ UAL4663 ✈ 16-Apr-2013 ✈ KEWR - KRDU

Flight Track Log - Related Links

Times and Time Zones

All times are in EDT time to prevent confusion due to time zone crossing. See the UAL4663 flight status page for this flight to view local times or setup timezone preferences in your user account.

Time Position Orientation Groundspeed Altitude Reporting Facility
EDT Latitude Longitude Course Direction KTS MPH feet Rate Location/Type
05:21PM 40.6667 -74.1833 180° South 157 181 1,200  Level New York TRACON
05:23PM 40.6167 -74.2167 207° Southwest 213 245 2,800 1,440 Climbing New York TRACON
05:25PM 40.2993 -74.1502 194° South  Level FlightAware Approximate
05:25PM 40.4856 -74.2475 190° South 237 273 6,000  Level New York Center
05:26PM 40.1967 -74.1844 194° South  Level FlightAware Approximate
05:26PM 40.4156 -74.2139 160° South 258 297 6,000  Level New York Center
05:27PM 40.0947 -74.2167 180° South  Level FlightAware Approximate
05:27PM 40.3458 -74.1778 158° South 268 308 6,100  Level New York Center
05:28PM 40.2731 -74.1714 176° South 262 302 7,500 1,800 Climbing New York Center
05:29PM 40.1994 -74.1950 194° South 261 300 9,800 1,920 Climbing New York Center
05:30PM 40.1278 -74.2186 194° South 283 326 11,400 1,320 Climbing New York Center
05:31PM 40.0439 -74.2414 192° South 304 350 12,400 1,080 Climbing New York Center
05:32PM 39.9522 -74.3047 208° Southwest 327 376 13,600 1,080 Climbing New York Center
05:33PM 39.8731 -74.3764 215° Southwest 343 395 14,600 900 Climbing New York Center
05:33PM 39.8411 -74.4081 217° Southwest 347 399 14,900 780 Climbing Washington Center
05:34PM 39.7750 -74.4844 222° Southwest 353 406 15,700 900 Climbing Washington Center
05:35PM 39.7050 -74.5800 226° Southwest 364 419 16,800 1,320 Climbing Washington Center
05:36PM 39.6392 -74.6672 226° Southwest 364 419 18,400 1,320 Climbing Washington Center
05:37PM 39.5689 -74.7625 226° Southwest 358 412 19,500 1,020 Climbing Washington Center
05:38PM 39.4967 -74.8547 225° Southwest 358 412 20,500 960 Climbing Washington Center
05:39PM 39.4222 -74.9522 225° Southwest 358 412 21,500 900 Climbing Washington Center
05:40PM 39.3517 -75.0442 225° Southwest 363 418 22,400 900 Climbing Washington Center
05:41PM 39.2750 -75.1492 227° Southwest 381 438 23,400 960 Climbing Washington Center
05:42PM 39.1983 -75.2433 224° Southwest 386 444 24,400 960 Climbing Washington Center
05:43PM 39.1236 -75.3428 226° Southwest 386 444 25,400 780 Climbing Washington Center
05:44PM 39.0467 -75.4419 225° Southwest 386 444 26,000 300 Climbing Washington Center
05:45PM 38.9675 -75.5436 225° Southwest 386 444 26,000  Level Washington Center
05:46PM 38.8883 -75.6556 228° Southwest 406 467 26,000  Level Washington Center
05:47PM 38.8444 -75.7942 248° West 414 476 26,000  Level Washington Center
05:48PM 38.7897 -75.9272 242° Southwest 419 482 26,000  Level Washington Center
05:49PM 38.6936 -76.0253 219° Southwest 429 494 26,000  Level Washington Center
05:50PM 38.5953 -76.1203 217° Southwest 435 501 26,000  Level Washington Center
05:51PM 38.4906 -76.2125 215° Southwest 448 516 26,000  Level Washington Center
05:52PM 38.3900 -76.3042 216° Southwest 454 522 26,000  Level Washington Center
05:53PM 38.2894 -76.3986 216° Southwest 454 522 26,000 -2,040 Level Washington Center
05:54PM 38.1989 -76.4953 220° Southwest 454 522 22,000 -780 Descending Washington Center
05:55PM 38.1292 -76.6211 235° Southwest 460 529 24,500 540 Climbing Washington Center
05:56PM 38.0511 -76.7308 228° Southwest 452 520 23,200 -1,200 Descending Washington Center
05:57PM 37.9708 -76.8378 226° Southwest 436 502 22,100 -600 Descending Washington Center
05:58PM 37.8492 -76.8961 201° Southwest 403 464 22,000 -60 Descending Washington Center
05:59PM 37.7381 -76.9442 199° South 419 482 22,000  Level Washington Center
06:00PM 37.6208 -76.9919 198° South 430 495 22,000  Level Washington Center
06:01PM 37.5075 -77.0422 199° South 430 495 22,000  Level Washington Center
06:02PM 37.3922 -77.0869 197° South 435 501 22,000  Level Washington Center
06:03PM 37.2956 -77.1400 204° Southwest 428 493 22,000  Level Washington Center
06:04PM 37.1944 -77.2083 208° Southwest 423 487 22,000  Level Washington Center
06:05PM 37.0956 -77.2792 210° Southwest 423 487 22,000  Level Washington Center
06:06PM 36.9986 -77.3500 210° Southwest 418 481 22,000  Level Washington Center
06:07PM 36.8972 -77.4281 212° Southwest 418 481 22,000  Level Washington Center
06:08PM 36.7981 -77.5008 210° Southwest 418 481 22,000  Level Washington Center
06:09PM 36.6947 -77.5761 210° Southwest 423 487 22,000  Level Washington Center
06:10PM 36.5911 -77.6536 211° Southwest 429 494 22,000  Level Washington Center
06:11PM 36.4958 -77.7392 216° Southwest 429 494 22,000 -540 Level Washington Center
06:12PM 36.3978 -77.8394 219° Southwest 424 488 21,000 -1,740 Descending Washington Center
06:13PM 36.3394 -77.9489 237° Southwest 415 478 18,500 -2,400 Descending Washington Center
06:14PM 36.2817 -78.0192 224° Southwest 410 472 17,200 -1,980 Descending Washington Center
06:14PM 36.2622 -78.0494 231° Southwest 416 479 16,600 -2,220 Descending Washington Center
06:15PM 36.1917 -78.1400 226° Southwest 385 443 14,100 -2,340 Descending Washington Center
06:16PM 36.1286 -78.2561 236° Southwest 368 423 12,000 -1,800 Descending Washington Center
06:17PM 36.0672 -78.3775 238° Southwest 364 419 10,300 -1,200 Descending Washington Center
06:18PM 36.0342 -78.4558 242° Southwest 340 391 9,700 -840 Descending Washington Center
06:18PM 36.0192 -78.4786 231° Southwest 278 320 9,400 -900 Descending Washington Center
06:19PM 35.9886 -78.5339 236° Southwest 306 352 8,800 -900 Descending Washington Center
06:19PM 35.9714 -78.5511 219° Southwest 267 307 8,500 -840 Descending Washington Center
06:20PM 35.9328 -78.5958 223° Southwest 288 331 8,000 -540 Descending Washington Center
06:20PM 35.9114 -78.6131 213° Southwest 272 313 8,000  Level Washington Center
06:21PM 35.8728 -78.6525 220° Southwest 276 318 8,000  Level Washington Center
06:21PM 35.8517 -78.6697 213° Southwest 267 307 8,000 -600 Level Washington Center
06:22PM 35.8192 -78.7119 226° Southwest 276 318 7,400 -1,020 Descending Washington Center
06:22PM 35.7997 -78.7317 219° Southwest 247 284 7,000 -1,200 Descending Washington Center
06:23PM 35.7739 -78.7692 230° Southwest 254 292 6,200 -1,020 Descending Washington Center
06:23PM 35.7567 -78.7839 215° Southwest 227 261 6,000 -840 Descending Washington Center
06:24PM 35.7136 -78.8333 223° Southwest 196 226 5,100 -1,140 Descending Washington Center
06:25PM 35.7100 -78.8894 265° West 208 239 3,800 -1,320 Descending Washington Center